עמוד ראשי
METAR-TAF:

METAR-TAF

שדות תעופה :

טאראווה, קיריבטי

קו רוחב: 01-21N, קו אורך: 172-55E, גובה: 2מטר

תצפית מזג אוויר נוכחית

הדו"ח נערך לפני 46דקות, בשעה 10:00 UTC
רוח 3קשר מכיוון צפון/צפון-מזרח
טמפרטורת 29 צלסיוס
לחות 84%
לחץ 1010 hPa
ראות 10 קילומטר או יותר
ללא עננים שבסיסם נמוך מ 5000 רגל או קומולונימבוס

METAR: NGTA 151000Z 03003KT CAVOK 29/26 Q1010

זמן: 00:46 (10:46 UTC)

תחזית

הדו"ח נערך לפני 5 שעות ו 38דקות, בשעה 05:08 UTC
תחזית בתוקף מ 15 ב 06 UTC עד 16 ב 06 UTC
רוח 6קשר מכיוון צפון-מזרח
ראות 10 קילומטר או יותר
מעט עננים בגובה 1900רגל
עננים פזורים בגובה 4000רגל
הסתברות 40% :
זמנית מ -
15 ב 06 UTC עד 15 ב 15 UTC
ראות: 7000מטר
מעט עננים בגובה 1800רגל , קומולונימבוס.
סופת רעמים, גשם,

TAF: NGTA 150508Z 1506/1606 05006KT 9999 FEW019 SCT040 PROB40 TEMPO 1506/1515 7000 TSRA FEW018CB

תצפיות ותחזיות מזג אוויר לגבי יותר מ- 4,000 שדות תעופה ברחבי העולם. דוחות METAR ו- TAF.

התחנות הזמינות מסומנות בנקודות צהובות ואדומות על גבי המפה.

העבר את העכבר לנקודה הצבעונית על מנת לראות את שם התחנה.

לאחר מכן, לחץ כדי לראות את תוכן ואת תחזיות מזג האוויר.

כדי לשנות את המפה: לחץ על הכפתורים הירוקים עם הפלוס השחור כדי להתקרב; על הכפתור הירוק עם המקף כדי להתרחק; או בחיצים הירוקים למפות סמוכות.


METAR-TAF: